PWSweather.com
Personal Weather Stations
Station Observations
IBAVARIA50
Munich, PlieningDE 85652

MunichPlieningDE 85652

Lat: 48.19916153, Lon: 11.79794312

Elevation: 504

Station Type: Davis Vantage Pro2

http://wetterstation-pliening.info

Latest ConditionsUpdated 8:55:06 PM GMT+01:01 Tuesday, Sep 25, 2018
Currently Today's Max Today's Min Today's Average
Temperature 44.3°F6.8°C 55.6°F13.1°C 40.1°F4.5°C 46.8°F8.2°C
Dew Point 35.1°F1.7°C 40.2°F4.6°C 32.2°F0.1°C 37.0°F2.8°C
Winds 2.0 mph E3.2 kmh E 9.0 mph -14.5 kmh - - 2.3 mph 3.7 kmh
Wind Gusts 4.0 mph6.4 kmh 11.0 mph17.7 kmh - -
Humidity 70% 89% 43% 71%
Pressure 30.65 in1037.9 mb 30.66 in1038.3 mb 30.54 in1034.2 mb -
Hour Temp Dew Point Humidity Winds Wind Gusts Pressure Precip Precip Rate Daily Precip Total
08:55 PM 44.3°F6.8°C 35.1°F1.7°C 70% 2.0 mph E3.2 kmh E 4.0 mph6.4 kmh 30.65 in1037.9 mb 0.00 in0.0 mm 0.00 in0.0 mm 0.00 in0.0 mm
08:50 PM 44.3°F6.8°C 35.1°F1.7°C 70% 2.0 mph E3.2 kmh E 5.0 mph8.0 kmh 30.65 in1037.9 mb 0.00 in0.0 mm 0.00 in0.0 mm 0.00 in0.0 mm
08:45 PM 44.2°F6.8°C 35.0°F1.7°C 70% 2.0 mph ENE3.2 kmh ENE 5.0 mph8.0 kmh 30.65 in1037.9 mb 0.00 in0.0 mm 0.00 in0.0 mm 0.00 in0.0 mm
08:40 PM 44.3°F6.8°C 35.1°F1.7°C 70% 3.0 mph E4.8 kmh E 4.0 mph6.4 kmh 30.65 in1037.9 mb 0.00 in0.0 mm 0.00 in0.0 mm 0.00 in0.0 mm
08:35 PM 44.3°F6.8°C 35.1°F1.7°C 70% 3.0 mph E4.8 kmh E 4.0 mph6.4 kmh 30.65 in1037.9 mb 0.00 in0.0 mm 0.00 in0.0 mm 0.00 in0.0 mm
08:30 PM 44.3°F6.8°C 35.4°F1.9°C 71% 4.0 mph E6.4 kmh E 4.0 mph6.4 kmh 30.65 in1037.9 mb 0.00 in0.0 mm 0.00 in0.0 mm 0.00 in0.0 mm
08:25 PM 44.3°F6.8°C 35.1°F1.7°C 70% 2.0 mph E3.2 kmh E 2.0 mph3.2 kmh 30.65 in1037.9 mb 0.00 in0.0 mm 0.00 in0.0 mm 0.00 in0.0 mm
08:20 PM 44.4°F6.9°C 35.2°F1.8°C 70% 1.0 mph E1.6 kmh E 3.0 mph4.8 kmh 30.65 in1037.9 mb 0.00 in0.0 mm 0.00 in0.0 mm 0.00 in0.0 mm
08:15 PM 44.5°F6.9°C 35.3°F1.8°C 70% 1.0 mph ESE1.6 kmh ESE 3.0 mph4.8 kmh 30.65 in1037.9 mb 0.00 in0.0 mm 0.00 in0.0 mm 0.00 in0.0 mm
08:10 PM 44.6°F7.0°C 35.4°F1.9°C 70% 1.0 mph ENE1.6 kmh ENE 5.0 mph8.0 kmh 30.65 in1037.9 mb 0.00 in0.0 mm 0.00 in0.0 mm 0.00 in0.0 mm
08:05 PM 44.8°F7.1°C 35.2°F1.8°C 69% 2.0 mph E3.2 kmh E 3.0 mph4.8 kmh 30.65 in1037.9 mb 0.00 in0.0 mm 0.00 in0.0 mm 0.00 in0.0 mm
08:00 PM 44.9°F7.2°C 35.3°F1.8°C 69% 1.0 mph ENE1.6 kmh ENE 3.0 mph4.8 kmh 30.65 in1037.9 mb 0.00 in0.0 mm 0.00 in0.0 mm 0.00 in0.0 mm
07:55 PM 45.2°F7.3°C 35.6°F2.0°C 69% 1.0 mph E1.6 kmh E 3.0 mph4.8 kmh 30.65 in1037.9 mb 0.00 in0.0 mm 0.00 in0.0 mm 0.00 in0.0 mm
07:50 PM 45.3°F7.4°C 35.7°F2.1°C 69% 1.0 mph E1.6 kmh E 3.0 mph4.8 kmh 30.65 in1037.9 mb 0.00 in0.0 mm 0.00 in0.0 mm 0.00 in0.0 mm
07:45 PM 45.4°F7.4°C 35.4°F1.9°C 68% 3.0 mph E4.8 kmh E 3.0 mph4.8 kmh 30.64 in1037.6 mb 0.00 in0.0 mm 0.00 in0.0 mm 0.00 in0.0 mm
07:40 PM 45.6°F7.6°C 35.6°F2.0°C 68% 1.0 mph E1.6 kmh E 5.0 mph8.0 kmh 30.64 in1037.6 mb 0.00 in0.0 mm 0.00 in0.0 mm 0.00 in0.0 mm
07:35 PM 45.6°F7.6°C 35.6°F2.0°C 68% Calm Calm 4.0 mph6.4 kmh 30.64 in1037.6 mb 0.00 in0.0 mm 0.00 in0.0 mm 0.00 in0.0 mm
07:30 PM 45.8°F7.7°C 35.8°F2.1°C 68% 1.0 mph ESE1.6 kmh ESE 3.0 mph4.8 kmh 30.64 in1037.6 mb 0.00 in0.0 mm 0.00 in0.0 mm 0.00 in0.0 mm
07:25 PM 45.9°F7.7°C 35.9°F2.2°C 68% Calm Calm 4.0 mph6.4 kmh 30.63 in1037.3 mb 0.00 in0.0 mm 0.00 in0.0 mm 0.00 in0.0 mm
07:20 PM 46.1°F7.8°C 35.7°F2.1°C 67% 2.0 mph E3.2 kmh E 3.0 mph4.8 kmh 30.63 in1037.3 mb 0.00 in0.0 mm 0.00 in0.0 mm 0.00 in0.0 mm
07:15 PM 46.2°F7.9°C 35.8°F2.1°C 67% 1.0 mph ENE1.6 kmh ENE 3.0 mph4.8 kmh 30.63 in1037.3 mb 0.00 in0.0 mm 0.00 in0.0 mm 0.00 in0.0 mm
07:10 PM 46.4°F8.0°C 36.0°F2.2°C 67% 2.0 mph ENE3.2 kmh ENE 3.0 mph4.8 kmh 30.63 in1037.3 mb 0.00 in0.0 mm 0.00 in0.0 mm 0.00 in0.0 mm
07:05 PM 46.5°F8.1°C 36.1°F2.3°C 67% Calm Calm 3.0 mph4.8 kmh 30.64 in1037.6 mb 0.00 in0.0 mm 0.00 in0.0 mm 0.00 in0.0 mm
07:00 PM 46.7°F8.2°C 35.9°F2.2°C 66% 2.0 mph ENE3.2 kmh ENE 3.0 mph4.8 kmh 30.63 in1037.3 mb 0.00 in0.0 mm 0.00 in0.0 mm 0.00 in0.0 mm
06:55 PM 46.9°F8.3°C 36.5°F2.5°C 67% 2.0 mph E3.2 kmh E 3.0 mph4.8 kmh 30.63 in1037.3 mb 0.00 in0.0 mm 0.00 in0.0 mm 0.00 in0.0 mm
06:50 PM 47.1°F8.4°C 36.7°F2.6°C 67% 2.0 mph E3.2 kmh E 3.0 mph4.8 kmh 30.64 in1037.6 mb 0.00 in0.0 mm 0.00 in0.0 mm 0.00 in0.0 mm
06:45 PM 47.4°F8.6°C 36.6°F2.6°C 66% Calm Calm -- 30.64 in1037.6 mb 0.00 in0.0 mm 0.00 in0.0 mm 0.00 in0.0 mm
06:40 PM 47.8°F8.8°C 36.2°F2.3°C 64% Calm Calm -- 30.64 in1037.6 mb 0.00 in0.0 mm 0.00 in0.0 mm 0.00 in0.0 mm
06:35 PM 48.1°F8.9°C 36.5°F2.5°C 64% Calm Calm -- 30.64 in1037.6 mb 0.00 in0.0 mm 0.00 in0.0 mm 0.00 in0.0 mm
06:30 PM 48.3°F9.1°C 36.2°F2.3°C 63% Calm Calm -- 30.63 in1037.3 mb 0.00 in0.0 mm 0.00 in0.0 mm 0.00 in0.0 mm
06:25 PM 48.5°F9.2°C 36.4°F2.4°C 63% Calm Calm 2.0 mph3.2 kmh 30.63 in1037.3 mb 0.00 in0.0 mm 0.00 in0.0 mm 0.00 in0.0 mm
06:20 PM 48.7°F9.3°C 35.8°F2.1°C 61% Calm Calm 2.0 mph3.2 kmh 30.63 in1037.3 mb 0.00 in0.0 mm 0.00 in0.0 mm 0.00 in0.0 mm
06:15 PM 48.8°F9.3°C 35.5°F1.9°C 60% 1.0 mph E1.6 kmh E 3.0 mph4.8 kmh 30.63 in1037.3 mb 0.00 in0.0 mm 0.00 in0.0 mm 0.00 in0.0 mm
06:10 PM 49.0°F9.4°C 35.7°F2.1°C 60% 1.0 mph E1.6 kmh E 3.0 mph4.8 kmh 30.62 in1036.9 mb 0.00 in0.0 mm 0.00 in0.0 mm 0.00 in0.0 mm
06:05 PM 49.1°F9.5°C 35.8°F2.1°C 60% 1.0 mph E1.6 kmh E 4.0 mph6.4 kmh 30.62 in1036.9 mb 0.00 in0.0 mm 0.00 in0.0 mm 0.00 in0.0 mm
06:00 PM 49.4°F9.7°C 36.1°F2.3°C 60% 2.0 mph ENE3.2 kmh ENE 3.0 mph4.8 kmh 30.62 in1036.9 mb 0.00 in0.0 mm 0.00 in0.0 mm 0.00 in0.0 mm
05:55 PM 49.7°F9.8°C 36.3°F2.4°C 60% 1.0 mph E1.6 kmh E 4.0 mph6.4 kmh 30.62 in1036.9 mb 0.00 in0.0 mm 0.00 in0.0 mm 0.00 in0.0 mm
05:50 PM 49.9°F9.9°C 36.5°F2.5°C 60% 3.0 mph ENE4.8 kmh ENE 4.0 mph6.4 kmh 30.62 in1036.9 mb 0.00 in0.0 mm 0.00 in0.0 mm 0.00 in0.0 mm
05:45 PM 50.2°F10.1°C 36.4°F2.4°C 59% 3.0 mph NE4.8 kmh NE 5.0 mph8.0 kmh 30.62 in1036.9 mb 0.00 in0.0 mm 0.00 in0.0 mm 0.00 in0.0 mm
05:40 PM 50.6°F10.3°C 35.9°F2.2°C 57% 4.0 mph NE6.4 kmh NE 5.0 mph8.0 kmh 30.62 in1036.9 mb 0.00 in0.0 mm 0.00 in0.0 mm 0.00 in0.0 mm
05:35 PM 50.9°F10.5°C 35.7°F2.1°C 56% 2.0 mph NE3.2 kmh NE 5.0 mph8.0 kmh 30.62 in1036.9 mb 0.00 in0.0 mm 0.00 in0.0 mm 0.00 in0.0 mm
05:30 PM 51.2°F10.7°C 35.5°F1.9°C 55% 4.0 mph NE6.4 kmh NE 5.0 mph8.0 kmh 30.62 in1036.9 mb 0.00 in0.0 mm 0.00 in0.0 mm 0.00 in0.0 mm
05:25 PM 51.6°F10.9°C 35.9°F2.2°C 55% 3.0 mph NNE4.8 kmh NNE 8.0 mph12.9 kmh 30.62 in1036.9 mb 0.00 in0.0 mm 0.00 in0.0 mm 0.00 in0.0 mm
05:20 PM 52.0°F11.1°C 36.3°F2.4°C 55% 4.0 mph NE6.4 kmh NE 10.0 mph16.1 kmh 30.62 in1036.9 mb 0.00 in0.0 mm 0.00 in0.0 mm 0.00 in0.0 mm
05:15 PM 52.3°F11.3°C 36.1°F2.3°C 54% 4.0 mph NE6.4 kmh NE 10.0 mph16.1 kmh 30.62 in1036.9 mb 0.00 in0.0 mm 0.00 in0.0 mm 0.00 in0.0 mm
05:10 PM 52.6°F11.4°C 35.4°F1.9°C 52% 4.0 mph NNE6.4 kmh NNE 10.0 mph16.1 kmh 30.61 in1036.6 mb 0.00 in0.0 mm 0.00 in0.0 mm 0.00 in0.0 mm
05:05 PM 52.9°F11.6°C 36.2°F2.3°C 53% 4.0 mph NNE6.4 kmh NNE 10.0 mph16.1 kmh 30.62 in1036.9 mb 0.00 in0.0 mm 0.00 in0.0 mm 0.00 in0.0 mm
05:00 PM 53.1°F11.7°C 35.9°F2.2°C 52% 6.0 mph NE9.7 kmh NE 11.0 mph17.7 kmh 30.62 in1036.9 mb 0.00 in0.0 mm 0.00 in0.0 mm 0.00 in0.0 mm
04:55 PM 53.5°F11.9°C 35.3°F1.8°C 50% 5.0 mph NE8.0 kmh NE 10.0 mph16.1 kmh 30.61 in1036.6 mb 0.00 in0.0 mm 0.00 in0.0 mm 0.00 in0.0 mm
04:50 PM 53.7°F12.1°C 35.5°F1.9°C 50% 2.0 mph NE3.2 kmh NE 8.0 mph12.9 kmh 30.61 in1036.6 mb 0.00 in0.0 mm 0.00 in0.0 mm 0.00 in0.0 mm
04:45 PM 53.6°F12.0°C 34.9°F1.6°C 49% 7.0 mph NE11.3 kmh NE 9.0 mph14.5 kmh 30.61 in1036.6 mb 0.00 in0.0 mm 0.00 in0.0 mm 0.00 in0.0 mm
04:40 PM 53.7°F12.1°C 34.9°F1.6°C 49% 4.0 mph NE6.4 kmh NE 6.0 mph9.7 kmh 30.61 in1036.6 mb 0.00 in0.0 mm 0.00 in0.0 mm 0.00 in0.0 mm
04:35 PM 53.9°F12.2°C 33.6°F0.9°C 46% 6.0 mph NNE9.7 kmh NNE 11.0 mph17.7 kmh 30.61 in1036.6 mb 0.00 in0.0 mm 0.00 in0.0 mm 0.00 in0.0 mm
04:30 PM 54.2°F12.3°C 34.9°F1.6°C 48% 2.0 mph ENE3.2 kmh ENE 10.0 mph16.1 kmh 30.61 in1036.6 mb 0.00 in0.0 mm 0.00 in0.0 mm 0.00 in0.0 mm
04:25 PM 54.3°F12.4°C 35.0°F1.7°C 48% 4.0 mph NNE6.4 kmh NNE 6.0 mph9.7 kmh 30.61 in1036.6 mb 0.00 in0.0 mm 0.00 in0.0 mm 0.00 in0.0 mm
04:20 PM 54.4°F12.4°C 32.9°F0.5°C 44% 5.0 mph N8.0 kmh N 7.0 mph11.3 kmh 30.61 in1036.6 mb 0.00 in0.0 mm 0.00 in0.0 mm 0.00 in0.0 mm
04:15 PM 54.6°F12.6°C 34.2°F1.2°C 46% 5.0 mph ENE8.0 kmh ENE 7.0 mph11.3 kmh 30.61 in1036.6 mb 0.00 in0.0 mm 0.00 in0.0 mm 0.00 in0.0 mm
04:10 PM 54.6°F12.6°C 33.6°F0.9°C 45% 3.0 mph NNE4.8 kmh NNE 10.0 mph16.1 kmh 30.61 in1036.6 mb 0.00 in0.0 mm 0.00 in0.0 mm 0.00 in0.0 mm
04:05 PM 54.8°F12.7°C 34.9°F1.6°C 47% 4.0 mph NNW6.4 kmh NNW 6.0 mph9.7 kmh 30.61 in1036.6 mb 0.00 in0.0 mm 0.00 in0.0 mm 0.00 in0.0 mm
04:00 PM 54.4°F12.4°C 33.5°F0.8°C 45% 2.0 mph N3.2 kmh N 9.0 mph14.5 kmh 30.62 in1036.9 mb 0.00 in0.0 mm 0.00 in0.0 mm 0.00 in0.0 mm
03:55 PM 54.2°F12.3°C 33.3°F0.7°C 45% 4.0 mph ENE6.4 kmh ENE 10.0 mph16.1 kmh 30.61 in1036.6 mb 0.00 in0.0 mm 0.00 in0.0 mm 0.00 in0.0 mm
03:50 PM 54.3°F12.4°C 32.2°F0.1°C 43% 5.0 mph NE8.0 kmh NE 10.0 mph16.1 kmh 30.61 in1036.6 mb 0.00 in0.0 mm 0.00 in0.0 mm 0.00 in0.0 mm
03:45 PM 54.5°F12.5°C 33.5°F0.8°C 45% 5.0 mph NNE8.0 kmh NNE 10.0 mph16.1 kmh 30.61 in1036.6 mb 0.00 in0.0 mm 0.00 in0.0 mm 0.00 in0.0 mm
03:40 PM 54.6°F12.6°C 35.3°F1.8°C 48% 3.0 mph NE4.8 kmh NE 9.0 mph14.5 kmh 30.61 in1036.6 mb 0.00 in0.0 mm 0.00 in0.0 mm 0.00 in0.0 mm
03:35 PM 54.7°F12.6°C 33.7°F0.9°C 45% 4.0 mph NE6.4 kmh NE 7.0 mph11.3 kmh 30.61 in1036.6 mb 0.00 in0.0 mm 0.00 in0.0 mm 0.00 in0.0 mm
03:30 PM 55.1°F12.8°C 35.2°F1.8°C 47% 6.0 mph NE9.7 kmh NE 11.0 mph17.7 kmh 30.61 in1036.6 mb 0.00 in0.0 mm 0.00 in0.0 mm 0.00 in0.0 mm
03:25 PM 55.0°F12.8°C 34.6°F1.4°C 46% 4.0 mph ENE6.4 kmh ENE 6.0 mph9.7 kmh 30.61 in1036.6 mb 0.00 in0.0 mm 0.00 in0.0 mm 0.00 in0.0 mm
03:20 PM 54.0°F12.2°C 34.7°F1.5°C 48% 2.0 mph NW3.2 kmh NW 7.0 mph11.3 kmh 30.62 in1036.9 mb 0.00 in0.0 mm 0.00 in0.0 mm 0.00 in0.0 mm
03:15 PM 53.6°F12.0°C 34.9°F1.6°C 49% 4.0 mph NNW6.4 kmh NNW 6.0 mph9.7 kmh 30.62 in1036.9 mb 0.00 in0.0 mm 0.00 in0.0 mm 0.00 in0.0 mm
03:10 PM 54.1°F12.3°C 35.3°F1.8°C 49% 4.0 mph NE6.4 kmh NE 10.0 mph16.1 kmh 30.62 in1036.9 mb 0.00 in0.0 mm 0.00 in0.0 mm 0.00 in0.0 mm
03:05 PM 54.6°F12.6°C 35.3°F1.8°C 48% 6.0 mph NE9.7 kmh NE 11.0 mph17.7 kmh 30.61 in1036.6 mb 0.00 in0.0 mm 0.00 in0.0 mm 0.00 in0.0 mm
03:00 PM 54.8°F12.7°C 36.0°F2.2°C 49% 7.0 mph NNE11.3 kmh NNE 11.0 mph17.7 kmh 30.61 in1036.6 mb 0.00 in0.0 mm 0.00 in0.0 mm 0.00 in0.0 mm
02:55 PM 55.1°F12.8°C 35.2°F1.8°C 47% 6.0 mph N9.7 kmh N 7.0 mph11.3 kmh 30.61 in1036.6 mb 0.00 in0.0 mm 0.00 in0.0 mm 0.00 in0.0 mm
02:50 PM 55.6°F13.1°C 35.6°F2.0°C 47% 4.0 mph NE6.4 kmh NE 9.0 mph14.5 kmh 30.61 in1036.6 mb 0.00 in0.0 mm 0.00 in0.0 mm 0.00 in0.0 mm
02:45 PM 55.5°F13.1°C 37.1°F2.8°C 50% 3.0 mph NE4.8 kmh NE 6.0 mph9.7 kmh 30.61 in1036.6 mb 0.00 in0.0 mm 0.00 in0.0 mm 0.00 in0.0 mm
02:40 PM 55.4°F13.0°C 34.9°F1.6°C 46% 1.0 mph E1.6 kmh E 6.0 mph9.7 kmh 30.61 in1036.6 mb 0.00 in0.0 mm 0.00 in0.0 mm 0.00 in0.0 mm
02:35 PM 55.2°F12.9°C 34.7°F1.5°C 46% 2.0 mph ESE3.2 kmh ESE 7.0 mph11.3 kmh 30.61 in1036.6 mb 0.00 in0.0 mm 0.00 in0.0 mm 0.00 in0.0 mm
02:30 PM 55.1°F12.8°C 35.2°F1.8°C 47% 3.0 mph E4.8 kmh E 9.0 mph14.5 kmh 30.62 in1036.9 mb 0.00 in0.0 mm 0.00 in0.0 mm 0.00 in0.0 mm
02:25 PM 55.2°F12.9°C 35.3°F1.8°C 47% 6.0 mph SE9.7 kmh SE 9.0 mph14.5 kmh 30.62 in1036.9 mb 0.00 in0.0 mm 0.00 in0.0 mm 0.00 in0.0 mm
02:20 PM 54.8°F12.7°C 37.0°F2.8°C 51% 2.0 mph SE3.2 kmh SE 9.0 mph14.5 kmh 30.62 in1036.9 mb 0.00 in0.0 mm 0.00 in0.0 mm 0.00 in0.0 mm
02:15 PM 54.7°F12.6°C 36.9°F2.7°C 51% 7.0 mph ENE11.3 kmh ENE 9.0 mph14.5 kmh 30.62 in1036.9 mb 0.00 in0.0 mm 0.00 in0.0 mm 0.00 in0.0 mm
02:10 PM 54.9°F12.7°C 35.5°F1.9°C 48% 1.0 mph E1.6 kmh E 10.0 mph16.1 kmh 30.62 in1036.9 mb 0.00 in0.0 mm 0.00 in0.0 mm 0.00 in0.0 mm
02:05 PM 55.1°F12.8°C 36.7°F2.6°C 50% 3.0 mph NNE4.8 kmh NNE 5.0 mph8.0 kmh 30.62 in1036.9 mb 0.00 in0.0 mm 0.00 in0.0 mm 0.00 in0.0 mm
02:00 PM 54.5°F12.5°C 35.2°F1.8°C 48% 2.0 mph N3.2 kmh N 5.0 mph8.0 kmh 30.62 in1036.9 mb 0.00 in0.0 mm 0.00 in0.0 mm 0.00 in0.0 mm
01:55 PM 54.2°F12.3°C 34.9°F1.6°C 48% 4.0 mph NNW6.4 kmh NNW 8.0 mph12.9 kmh 30.62 in1036.9 mb 0.00 in0.0 mm 0.00 in0.0 mm 0.00 in0.0 mm
01:50 PM 54.2°F12.3°C 34.9°F1.6°C 48% 3.0 mph NNW4.8 kmh NNW 6.0 mph9.7 kmh 30.62 in1036.9 mb 0.00 in0.0 mm 0.00 in0.0 mm 0.00 in0.0 mm
01:45 PM 54.0°F12.2°C 35.7°F2.1°C 50% 5.0 mph N8.0 kmh N 11.0 mph17.7 kmh 30.62 in1036.9 mb 0.00 in0.0 mm 0.00 in0.0 mm 0.00 in0.0 mm
01:40 PM 54.1°F12.3°C 35.3°F1.8°C 49% 5.0 mph NNE8.0 kmh NNE 11.0 mph17.7 kmh 30.62 in1036.9 mb 0.00 in0.0 mm 0.00 in0.0 mm 0.00 in0.0 mm
01:35 PM 54.7°F12.6°C 35.9°F2.2°C 49% 5.0 mph N8.0 kmh N 9.0 mph14.5 kmh 30.62 in1036.9 mb 0.00 in0.0 mm 0.00 in0.0 mm 0.00 in0.0 mm
01:30 PM 54.8°F12.7°C 37.5°F3.1°C 52% 6.0 mph N9.7 kmh N 9.0 mph14.5 kmh 30.62 in1036.9 mb 0.00 in0.0 mm 0.00 in0.0 mm 0.00 in0.0 mm
01:25 PM 54.5°F12.5°C 36.7°F2.6°C 51% 3.0 mph NNE4.8 kmh NNE 3.0 mph4.8 kmh 30.63 in1037.3 mb 0.00 in0.0 mm 0.00 in0.0 mm 0.00 in0.0 mm
01:20 PM 53.3°F11.8°C 36.1°F2.3°C 52% 2.0 mph SE3.2 kmh SE 4.0 mph6.4 kmh 30.63 in1037.3 mb 0.00 in0.0 mm 0.00 in0.0 mm 0.00 in0.0 mm
01:15 PM 52.3°F11.3°C 37.9°F3.3°C 58% Calm Calm 7.0 mph11.3 kmh 30.63 in1037.3 mb 0.00 in0.0 mm 0.00 in0.0 mm 0.00 in0.0 mm
01:10 PM 52.6°F11.4°C 36.4°F2.4°C 54% 4.0 mph N6.4 kmh N 9.0 mph14.5 kmh 30.63 in1037.3 mb 0.00 in0.0 mm 0.00 in0.0 mm 0.00 in0.0 mm
01:05 PM 53.5°F11.9°C 35.3°F1.8°C 50% 1.0 mph NNW1.6 kmh NNW 6.0 mph9.7 kmh 30.63 in1037.3 mb 0.00 in0.0 mm 0.00 in0.0 mm 0.00 in0.0 mm
01:00 PM 53.9°F12.2°C 36.6°F2.6°C 52% 5.0 mph N8.0 kmh N 9.0 mph14.5 kmh 30.63 in1037.3 mb 0.00 in0.0 mm 0.00 in0.0 mm 0.00 in0.0 mm
12:55 PM 55.1°F12.8°C 37.2°F2.9°C 51% 5.0 mph NNE8.0 kmh NNE 9.0 mph14.5 kmh 30.63 in1037.3 mb 0.00 in0.0 mm 0.00 in0.0 mm 0.00 in0.0 mm
12:50 PM 55.1°F12.8°C 38.7°F3.7°C 54% 1.0 mph E1.6 kmh E 4.0 mph6.4 kmh 30.63 in1037.3 mb 0.00 in0.0 mm 0.00 in0.0 mm 0.00 in0.0 mm
12:45 PM 54.7°F12.6°C 37.4°F3.0°C 52% 3.0 mph E4.8 kmh E 5.0 mph8.0 kmh 30.63 in1037.3 mb 0.00 in0.0 mm 0.00 in0.0 mm 0.00 in0.0 mm
12:40 PM 54.3°F12.4°C 37.5°F3.1°C 53% 1.0 mph WSW1.6 kmh WSW 4.0 mph6.4 kmh 30.64 in1037.6 mb 0.00 in0.0 mm 0.00 in0.0 mm 0.00 in0.0 mm
12:35 PM 54.3°F12.4°C 37.0°F2.8°C 52% 2.0 mph E3.2 kmh E 4.0 mph6.4 kmh 30.64 in1037.6 mb 0.00 in0.0 mm 0.00 in0.0 mm 0.00 in0.0 mm
12:30 PM 54.0°F12.2°C 38.2°F3.4°C 55% 2.0 mph ESE3.2 kmh ESE 5.0 mph8.0 kmh 30.64 in1037.6 mb 0.00 in0.0 mm 0.00 in0.0 mm 0.00 in0.0 mm
12:25 PM 53.1°F11.7°C 36.4°F2.4°C 53% 3.0 mph SW4.8 kmh SW 5.0 mph8.0 kmh 30.64 in1037.6 mb 0.00 in0.0 mm 0.00 in0.0 mm 0.00 in0.0 mm
12:20 PM 52.3°F11.3°C 36.1°F2.3°C 54% 2.0 mph ENE3.2 kmh ENE 5.0 mph8.0 kmh 30.64 in1037.6 mb 0.00 in0.0 mm 0.00 in0.0 mm 0.00 in0.0 mm
12:15 PM 51.6°F10.9°C 36.4°F2.4°C 56% Calm Calm 3.0 mph4.8 kmh 30.65 in1037.9 mb 0.00 in0.0 mm 0.00 in0.0 mm 0.00 in0.0 mm
12:10 PM 51.9°F11.1°C 35.3°F1.8°C 53% Calm Calm 4.0 mph6.4 kmh 30.64 in1037.6 mb 0.00 in0.0 mm 0.00 in0.0 mm 0.00 in0.0 mm
12:05 PM 51.4°F10.8°C 36.2°F2.3°C 56% Calm Calm 4.0 mph6.4 kmh 30.65 in1037.9 mb 0.00 in0.0 mm 0.00 in0.0 mm 0.00 in0.0 mm
12:00 PM 50.8°F10.4°C 36.9°F2.7°C 59% 1.0 mph WNW1.6 kmh WNW 3.0 mph4.8 kmh 30.64 in1037.6 mb 0.00 in0.0 mm 0.00 in0.0 mm 0.00 in0.0 mm
11:55 AM 51.1°F10.6°C 36.4°F2.4°C 57% 2.0 mph NE3.2 kmh NE 5.0 mph8.0 kmh 30.65 in1037.9 mb 0.00 in0.0 mm 0.00 in0.0 mm 0.00 in0.0 mm
11:50 AM 51.6°F10.9°C 37.7°F3.2°C 59% 3.0 mph NNE4.8 kmh NNE 4.0 mph6.4 kmh 30.64 in1037.6 mb 0.00 in0.0 mm 0.00 in0.0 mm 0.00 in0.0 mm
11:45 AM 51.4°F10.8°C 37.5°F3.1°C 59% 2.0 mph N3.2 kmh N 5.0 mph8.0 kmh 30.64 in1037.6 mb 0.00 in0.0 mm 0.00 in0.0 mm 0.00 in0.0 mm
11:40 AM 51.4°F10.8°C 37.1°F2.8°C 58% 4.0 mph N6.4 kmh N 9.0 mph14.5 kmh 30.64 in1037.6 mb 0.00 in0.0 mm 0.00 in0.0 mm 0.00 in0.0 mm
11:35 AM 52.4°F11.3°C 38.4°F3.6°C 59% 5.0 mph 8.0 kmh 8.0 mph12.9 kmh 30.64 in1037.6 mb 0.00 in0.0 mm 0.00 in0.0 mm 0.00 in0.0 mm
11:30 AM 52.7°F11.5°C 39.6°F4.2°C 61% Calm Calm 3.0 mph4.8 kmh 30.64 in1037.6 mb 0.00 in0.0 mm 0.00 in0.0 mm 0.00 in0.0 mm
11:25 AM 51.6°F10.9°C 38.1°F3.4°C 60% 2.0 mph SSE3.2 kmh SSE 5.0 mph8.0 kmh 30.64 in1037.6 mb 0.00 in0.0 mm 0.00 in0.0 mm 0.00 in0.0 mm
11:20 AM 51.2°F10.7°C 38.6°F3.7°C 62% 1.0 mph ENE1.6 kmh ENE 6.0 mph9.7 kmh 30.64 in1037.6 mb 0.00 in0.0 mm 0.00 in0.0 mm 0.00 in0.0 mm
11:15 AM 50.6°F10.3°C 38.0°F3.3°C 62% 3.0 mph E4.8 kmh E 6.0 mph9.7 kmh 30.65 in1037.9 mb 0.00 in0.0 mm 0.00 in0.0 mm 0.00 in0.0 mm
11:10 AM 50.3°F10.2°C 36.9°F2.7°C 60% 4.0 mph E6.4 kmh E 6.0 mph9.7 kmh 30.65 in1037.9 mb 0.00 in0.0 mm 0.00 in0.0 mm 0.00 in0.0 mm
11:05 AM 50.1°F10.1°C 38.0°F3.3°C 63% 4.0 mph 6.4 kmh 6.0 mph9.7 kmh 30.65 in1037.9 mb 0.00 in0.0 mm 0.00 in0.0 mm 0.00 in0.0 mm
11:00 AM 50.6°F10.3°C 37.2°F2.9°C 60% 3.0 mph NE4.8 kmh NE 7.0 mph11.3 kmh 30.65 in1037.9 mb 0.00 in0.0 mm 0.00 in0.0 mm 0.00 in0.0 mm
10:55 AM 50.8°F10.4°C 37.8°F3.2°C 61% 3.0 mph NNE4.8 kmh NNE 6.0 mph9.7 kmh 30.65 in1037.9 mb 0.00 in0.0 mm 0.00 in0.0 mm 0.00 in0.0 mm
10:50 AM 50.0°F10.0°C 37.9°F3.3°C 63% 2.0 mph NE3.2 kmh NE 4.0 mph6.4 kmh 30.65 in1037.9 mb 0.00 in0.0 mm 0.00 in0.0 mm 0.00 in0.0 mm
10:45 AM 49.2°F9.6°C 36.7°F2.6°C 62% 1.0 mph W1.6 kmh W 9.0 mph14.5 kmh 30.66 in1038.3 mb 0.00 in0.0 mm 0.00 in0.0 mm 0.00 in0.0 mm
10:40 AM 49.0°F9.4°C 36.5°F2.5°C 62% 1.0 mph E1.6 kmh E 7.0 mph11.3 kmh 30.66 in1038.3 mb 0.00 in0.0 mm 0.00 in0.0 mm 0.00 in0.0 mm
10:35 AM 49.0°F9.4°C 36.5°F2.5°C 62% 4.0 mph NE6.4 kmh NE 5.0 mph8.0 kmh 30.66 in1038.3 mb 0.00 in0.0 mm 0.00 in0.0 mm 0.00 in0.0 mm
10:30 AM 48.6°F9.2°C 38.8°F3.8°C 69% 4.0 mph N6.4 kmh N 7.0 mph11.3 kmh 30.66 in1038.3 mb 0.00 in0.0 mm 0.00 in0.0 mm 0.00 in0.0 mm
10:25 AM 47.9°F8.8°C 39.3°F4.1°C 72% 4.0 mph ESE6.4 kmh ESE 7.0 mph11.3 kmh 30.66 in1038.3 mb 0.00 in0.0 mm 0.00 in0.0 mm 0.00 in0.0 mm
10:20 AM 47.9°F8.8°C 38.2°F3.4°C 69% 1.0 mph NNE1.6 kmh NNE 9.0 mph14.5 kmh 30.66 in1038.3 mb 0.00 in0.0 mm 0.00 in0.0 mm 0.00 in0.0 mm
10:15 AM 47.7°F8.7°C 39.1°F3.9°C 72% 9.0 mph N14.5 kmh N 9.0 mph14.5 kmh 30.66 in1038.3 mb 0.00 in0.0 mm 0.00 in0.0 mm 0.00 in0.0 mm
10:10 AM 47.5°F8.6°C 38.9°F3.8°C 72% 6.0 mph 9.7 kmh 6.0 mph9.7 kmh 30.66 in1038.3 mb 0.00 in0.0 mm 0.00 in0.0 mm 0.00 in0.0 mm
10:05 AM 47.9°F8.8°C 39.3°F4.1°C 72% 6.0 mph NE9.7 kmh NE 8.0 mph12.9 kmh 30.65 in1037.9 mb 0.00 in0.0 mm 0.00 in0.0 mm 0.00 in0.0 mm
10:00 AM 48.0°F8.9°C 39.4°F4.1°C 72% 2.0 mph NE3.2 kmh NE 8.0 mph12.9 kmh 30.65 in1037.9 mb 0.00 in0.0 mm 0.00 in0.0 mm 0.00 in0.0 mm
09:55 AM 47.9°F8.8°C 40.0°F4.4°C 74% 5.0 mph N8.0 kmh N 7.0 mph11.3 kmh 30.65 in1037.9 mb 0.00 in0.0 mm 0.00 in0.0 mm 0.00 in0.0 mm
09:50 AM 47.6°F8.7°C 39.7°F4.3°C 74% 4.0 mph NNE6.4 kmh NNE 5.0 mph8.0 kmh 30.65 in1037.9 mb 0.00 in0.0 mm 0.00 in0.0 mm 0.00 in0.0 mm
09:45 AM 47.4°F8.6°C 40.2°F4.6°C 76% 5.0 mph 8.0 kmh 7.0 mph11.3 kmh 30.65 in1037.9 mb 0.00 in0.0 mm 0.00 in0.0 mm 0.00 in0.0 mm
09:40 AM 47.0°F8.3°C 39.1°F3.9°C 74% 3.0 mph N4.8 kmh N 7.0 mph11.3 kmh 30.65 in1037.9 mb 0.00 in0.0 mm 0.00 in0.0 mm 0.00 in0.0 mm
09:35 AM 47.1°F8.4°C 39.2°F4.0°C 74% 4.0 mph NE6.4 kmh NE 7.0 mph11.3 kmh 30.65 in1037.9 mb 0.00 in0.0 mm 0.00 in0.0 mm 0.00 in0.0 mm
09:30 AM 47.0°F8.3°C 39.1°F3.9°C 74% 6.0 mph NE9.7 kmh NE 9.0 mph14.5 kmh 30.65 in1037.9 mb 0.00 in0.0 mm 0.00 in0.0 mm 0.00 in0.0 mm
09:25 AM 46.9°F8.3°C 39.7°F4.3°C 76% 4.0 mph NE6.4 kmh NE 9.0 mph14.5 kmh 30.65 in1037.9 mb 0.00 in0.0 mm 0.00 in0.0 mm 0.00 in0.0 mm
09:20 AM 46.6°F8.1°C 39.1°F3.9°C 75% 6.0 mph NNE9.7 kmh NNE 7.0 mph11.3 kmh 30.65 in1037.9 mb 0.00 in0.0 mm 0.00 in0.0 mm 0.00 in0.0 mm
09:15 AM 46.6°F8.1°C 39.1°F3.9°C 75% 4.0 mph 6.4 kmh 7.0 mph11.3 kmh 30.65 in1037.9 mb 0.00 in0.0 mm 0.00 in0.0 mm 0.00 in0.0 mm
09:10 AM 46.5°F8.1°C 40.0°F4.4°C 78% 2.0 mph NE3.2 kmh NE 7.0 mph11.3 kmh 30.65 in1037.9 mb 0.00 in0.0 mm 0.00 in0.0 mm 0.00 in0.0 mm
09:05 AM 46.3°F7.9°C 39.8°F4.3°C 78% 6.0 mph N9.7 kmh N 7.0 mph11.3 kmh 30.65 in1037.9 mb 0.00 in0.0 mm 0.00 in0.0 mm 0.00 in0.0 mm
09:00 AM 46.1°F7.8°C 39.9°F4.4°C 79% 5.0 mph N8.0 kmh N 6.0 mph9.7 kmh 30.65 in1037.9 mb 0.00 in0.0 mm 0.00 in0.0 mm 0.00 in0.0 mm
08:55 AM 45.9°F7.7°C 40.0°F4.4°C 80% 4.0 mph NE6.4 kmh NE 7.0 mph11.3 kmh 30.65 in1037.9 mb 0.00 in0.0 mm 0.00 in0.0 mm 0.00 in0.0 mm
08:50 AM 45.7°F7.6°C 40.2°F4.6°C 81% 3.0 mph NE4.8 kmh NE 8.0 mph12.9 kmh 30.65 in1037.9 mb 0.00 in0.0 mm 0.00 in0.0 mm 0.00 in0.0 mm
08:45 AM 45.5°F7.5°C 39.6°F4.2°C 80% 2.0 mph NE3.2 kmh NE 9.0 mph14.5 kmh 30.64 in1037.6 mb 0.00 in0.0 mm 0.00 in0.0 mm 0.00 in0.0 mm
08:40 AM 45.3°F7.4°C 39.4°F4.1°C 80% 3.0 mph NE4.8 kmh NE 7.0 mph11.3 kmh 30.65 in1037.9 mb 0.00 in0.0 mm 0.00 in0.0 mm 0.00 in0.0 mm
08:35 AM 45.0°F7.2°C 39.5°F4.2°C 81% 2.0 mph N3.2 kmh N 6.0 mph9.7 kmh 30.64 in1037.6 mb 0.00 in0.0 mm 0.00 in0.0 mm 0.00 in0.0 mm
08:30 AM 44.8°F7.1°C 39.9°F4.4°C 83% 4.0 mph NE6.4 kmh NE 5.0 mph8.0 kmh 30.64 in1037.6 mb 0.00 in0.0 mm 0.00 in0.0 mm 0.00 in0.0 mm
08:25 AM 44.7°F7.1°C 39.5°F4.2°C 82% 4.0 mph NE6.4 kmh NE 7.0 mph11.3 kmh 30.64 in1037.6 mb 0.00 in0.0 mm 0.00 in0.0 mm 0.00 in0.0 mm
08:20 AM 44.6°F7.0°C 39.7°F4.3°C 83% 2.0 mph NNE3.2 kmh NNE 6.0 mph9.7 kmh 30.64 in1037.6 mb 0.00 in0.0 mm 0.00 in0.0 mm 0.00 in0.0 mm
08:15 AM 44.5°F6.9°C 39.9°F4.4°C 84% 5.0 mph 8.0 kmh 6.0 mph9.7 kmh 30.63 in1037.3 mb 0.00 in0.0 mm 0.00 in0.0 mm 0.00 in0.0 mm
08:10 AM 44.2°F6.8°C 39.9°F4.4°C 85% 4.0 mph NE6.4 kmh NE 5.0 mph8.0 kmh 30.63 in1037.3 mb 0.00 in0.0 mm 0.00 in0.0 mm 0.00 in0.0 mm
08:05 AM 43.9°F6.6°C 39.6°F4.2°C 85% 4.0 mph N6.4 kmh N 5.0 mph8.0 kmh 30.63 in1037.3 mb 0.00 in0.0 mm 0.00 in0.0 mm 0.00 in0.0 mm
08:00 AM 43.7°F6.5°C 39.4°F4.1°C 85% 3.0 mph NNE4.8 kmh NNE 5.0 mph8.0 kmh 30.62 in1036.9 mb 0.00 in0.0 mm 0.00 in0.0 mm 0.00 in0.0 mm
07:55 AM 43.7°F6.5°C 39.7°F4.3°C 86% 4.0 mph N6.4 kmh N 4.0 mph6.4 kmh 30.62 in1036.9 mb 0.00 in0.0 mm 0.00 in0.0 mm 0.00 in0.0 mm
07:50 AM 43.5°F6.4°C 39.5°F4.2°C 86% Calm Calm -- 30.62 in1036.9 mb 0.00 in0.0 mm 0.00 in0.0 mm 0.00 in0.0 mm
07:45 AM 43.5°F6.4°C 39.8°F4.3°C 87% Calm Calm -- 30.62 in1036.9 mb 0.00 in0.0 mm 0.00 in0.0 mm 0.00 in0.0 mm
07:40 AM 43.3°F6.3°C 39.6°F4.2°C 87% Calm Calm -- 30.62 in1036.9 mb 0.00 in0.0 mm 0.00 in0.0 mm 0.00 in0.0 mm
07:35 AM 42.8°F6.0°C 39.4°F4.1°C 88% Calm Calm -- 30.62 in1036.9 mb 0.00 in0.0 mm 0.00 in0.0 mm 0.00 in0.0 mm
07:30 AM 42.4°F5.8°C 39.1°F3.9°C 88% Calm Calm -- 30.62 in1036.9 mb 0.00 in0.0 mm 0.00 in0.0 mm 0.00 in0.0 mm
07:25 AM 41.9°F5.5°C 38.6°F3.7°C 88% Calm Calm -- 30.62 in1036.9 mb 0.00 in0.0 mm 0.00 in0.0 mm 0.00 in0.0 mm
07:20 AM 41.6°F5.3°C 38.3°F3.5°C 88% Calm Calm -- 30.62 in1036.9 mb 0.00 in0.0 mm 0.00 in0.0 mm 0.00 in0.0 mm
07:15 AM 41.2°F5.1°C 38.2°F3.4°C 89% Calm Calm -- 30.62 in1036.9 mb 0.00 in0.0 mm 0.00 in0.0 mm 0.00 in0.0 mm
07:10 AM 40.9°F4.9°C 37.9°F3.3°C 89% Calm Calm -- 30.62 in1036.9 mb 0.00 in0.0 mm 0.00 in0.0 mm 0.00 in0.0 mm
07:05 AM 40.7°F4.8°C 37.4°F3.0°C 88% Calm Calm -- 30.62 in1036.9 mb 0.00 in0.0 mm 0.00 in0.0 mm 0.00 in0.0 mm
07:00 AM 40.6°F4.8°C 37.6°F3.1°C 89% Calm Calm -- 30.61 in1036.6 mb 0.00 in0.0 mm 0.00 in0.0 mm 0.00 in0.0 mm
06:55 AM 40.5°F4.7°C 37.2°F2.9°C 88% Calm Calm -- 30.61 in1036.6 mb 0.00 in0.0 mm 0.00 in0.0 mm 0.00 in0.0 mm
06:50 AM 40.5°F4.7°C 37.2°F2.9°C 88% Calm Calm -- 30.61 in1036.6 mb 0.00 in0.0 mm 0.00 in0.0 mm 0.00 in0.0 mm
06:45 AM 40.5°F4.7°C 37.2°F2.9°C 88% Calm Calm -- 30.61 in1036.6 mb 0.00 in0.0 mm 0.00 in0.0 mm 0.00 in0.0 mm
06:40 AM 40.5°F4.7°C 37.2°F2.9°C 88% Calm Calm -- 30.60 in1036.2 mb 0.00 in0.0 mm 0.00 in0.0 mm 0.00 in0.0 mm
06:35 AM 40.4°F4.7°C 37.1°F2.8°C 88% Calm Calm -- 30.61 in1036.6 mb 0.00 in0.0 mm 0.00 in0.0 mm 0.00 in0.0 mm
06:30 AM 40.4°F4.7°C 37.1°F2.8°C 88% Calm Calm -- 30.60 in1036.2 mb 0.00 in0.0 mm 0.00 in0.0 mm 0.00 in0.0 mm
06:25 AM 40.5°F4.7°C 37.2°F2.9°C 88% Calm Calm 1.0 mph1.6 kmh 30.60 in1036.2 mb 0.00 in0.0 mm 0.00 in0.0 mm 0.00 in0.0 mm
06:20 AM 40.6°F4.8°C 37.3°F2.9°C 88% Calm Calm -- 30.60 in1036.2 mb 0.00 in0.0 mm 0.00 in0.0 mm 0.00 in0.0 mm
06:15 AM 40.5°F4.7°C 37.2°F2.9°C 88% Calm Calm -- 30.60 in1036.2 mb 0.00 in0.0 mm 0.00 in0.0 mm 0.00 in0.0 mm
06:10 AM 40.6°F4.8°C 37.3°F2.9°C 88% Calm Calm -- 30.60 in1036.2 mb 0.00 in0.0 mm 0.00 in0.0 mm 0.00 in0.0 mm
06:05 AM 40.6°F4.8°C 37.3°F2.9°C 88% Calm Calm -- 30.59 in1035.9 mb 0.00 in0.0 mm 0.00 in0.0 mm 0.00 in0.0 mm
06:00 AM 40.6°F4.8°C 37.3°F2.9°C 88% Calm Calm -- 30.59 in1035.9 mb 0.00 in0.0 mm 0.00 in0.0 mm 0.00 in0.0 mm
05:55 AM 40.5°F4.7°C 37.2°F2.9°C 88% Calm Calm -- 30.59 in1035.9 mb 0.00 in0.0 mm 0.00 in0.0 mm 0.00 in0.0 mm
05:50 AM 40.4°F4.7°C 37.1°F2.8°C 88% Calm Calm -- 30.59 in1035.9 mb 0.00 in0.0 mm 0.00 in0.0 mm 0.00 in0.0 mm
05:45 AM 40.2°F4.6°C 36.9°F2.7°C 88% Calm Calm -- 30.59 in1035.9 mb 0.00 in0.0 mm 0.00 in0.0 mm 0.00 in0.0 mm
05:40 AM 40.1°F4.5°C 36.8°F2.7°C 88% Calm Calm -- 30.59 in1035.9 mb 0.00 in0.0 mm 0.00 in0.0 mm 0.00 in0.0 mm
05:35 AM 40.1°F4.5°C 36.8°F2.7°C 88% Calm Calm -- 30.59 in1035.9 mb 0.00 in0.0 mm 0.00 in0.0 mm 0.00 in0.0 mm
05:30 AM 40.1°F4.5°C 36.8°F2.7°C 88% Calm Calm -- 30.58 in1035.6 mb 0.00 in0.0 mm 0.00 in0.0 mm 0.00 in0.0 mm
05:25 AM 40.2°F4.6°C 36.9°F2.7°C 88% Calm Calm 1.0 mph1.6 kmh 30.58 in1035.6 mb 0.00 in0.0 mm 0.00 in0.0 mm 0.00 in0.0 mm
05:20 AM 40.2°F4.6°C 36.9°F2.7°C 88% 1.0 mph S1.6 kmh S 2.0 mph3.2 kmh 30.58 in1035.6 mb 0.00 in0.0 mm 0.00 in0.0 mm 0.00 in0.0 mm
05:15 AM 40.3°F4.6°C 37.0°F2.8°C 88% 2.0 mph S3.2 kmh S 3.0 mph4.8 kmh 30.58 in1035.6 mb 0.00 in0.0 mm 0.00 in0.0 mm 0.00 in0.0 mm
05:10 AM 40.4°F4.7°C 37.1°F2.8°C 88% 2.0 mph S3.2 kmh S 3.0 mph4.8 kmh 30.58 in1035.6 mb 0.00 in0.0 mm 0.00 in0.0 mm 0.00 in0.0 mm
05:05 AM 40.4°F4.7°C 37.1°F2.8°C 88% 1.0 mph S1.6 kmh S 3.0 mph4.8 kmh 30.58 in1035.6 mb 0.00 in0.0 mm 0.00 in0.0 mm 0.00 in0.0 mm
05:00 AM 40.5°F4.7°C 37.2°F2.9°C 88% 1.0 mph S1.6 kmh S 3.0 mph4.8 kmh 30.58 in1035.6 mb 0.00 in0.0 mm 0.00 in0.0 mm 0.00 in0.0 mm
04:55 AM 40.5°F4.7°C 37.2°F2.9°C 88% 1.0 mph S1.6 kmh S 2.0 mph3.2 kmh 30.58 in1035.6 mb 0.00 in0.0 mm 0.00 in0.0 mm 0.00 in0.0 mm
04:50 AM 40.5°F4.7°C 37.2°F2.9°C 88% Calm Calm 3.0 mph4.8 kmh 30.57 in1035.2 mb 0.00 in0.0 mm 0.00 in0.0 mm 0.00 in0.0 mm
04:45 AM 40.6°F4.8°C 37.3°F2.9°C 88% 3.0 mph S4.8 kmh S 4.0 mph6.4 kmh 30.57 in1035.2 mb 0.00 in0.0 mm 0.00 in0.0 mm 0.00 in0.0 mm
04:40 AM 40.7°F4.8°C 37.4°F3.0°C 88% 2.0 mph S3.2 kmh S 3.0 mph4.8 kmh 30.57 in1035.2 mb 0.00 in0.0 mm 0.00 in0.0 mm 0.00 in0.0 mm
04:35 AM 40.7°F4.8°C 37.4°F3.0°C 88% 1.0 mph S1.6 kmh S 2.0 mph3.2 kmh 30.57 in1035.2 mb 0.00 in0.0 mm 0.00 in0.0 mm 0.00 in0.0 mm
04:30 AM 40.7°F4.8°C 37.4°F3.0°C 88% 1.0 mph S1.6 kmh S 3.0 mph4.8 kmh 30.57 in1035.2 mb 0.00 in0.0 mm 0.00 in0.0 mm 0.00 in0.0 mm
04:25 AM 40.7°F4.8°C 37.1°F2.8°C 87% 2.0 mph S3.2 kmh S 2.0 mph3.2 kmh 30.57 in1035.2 mb 0.00 in0.0 mm 0.00 in0.0 mm 0.00 in0.0 mm
04:20 AM 40.7°F4.8°C 37.1°F2.8°C 87% Calm Calm 1.0 mph1.6 kmh 30.57 in1035.2 mb 0.00 in0.0 mm 0.00 in0.0 mm 0.00 in0.0 mm
04:15 AM 40.7°F4.8°C 37.1°F2.8°C 87% 1.0 mph S1.6 kmh S 4.0 mph6.4 kmh 30.57 in1035.2 mb 0.00 in0.0 mm 0.00 in0.0 mm 0.00 in0.0 mm
04:10 AM 40.7°F4.8°C 37.1°F2.8°C 87% 4.0 mph S6.4 kmh S 4.0 mph6.4 kmh 30.57 in1035.2 mb 0.00 in0.0 mm 0.00 in0.0 mm 0.00 in0.0 mm
04:05 AM 40.9°F4.9°C 37.3°F2.9°C 87% 2.0 mph S3.2 kmh S 4.0 mph6.4 kmh 30.57 in1035.2 mb 0.00 in0.0 mm 0.00 in0.0 mm 0.00 in0.0 mm
04:00 AM 40.9°F4.9°C 37.3°F2.9°C 87% 3.0 mph SSW4.8 kmh SSW 3.0 mph4.8 kmh 30.56 in1034.9 mb 0.00 in0.0 mm 0.00 in0.0 mm 0.00 in0.0 mm
03:55 AM 41.1°F5.1°C 37.2°F2.9°C 86% 2.0 mph SSW3.2 kmh SSW 4.0 mph6.4 kmh 30.56 in1034.9 mb 0.00 in0.0 mm 0.00 in0.0 mm 0.00 in0.0 mm
03:50 AM 41.2°F5.1°C 37.3°F2.9°C 86% 3.0 mph SSW4.8 kmh SSW 4.0 mph6.4 kmh 30.56 in1034.9 mb 0.00 in0.0 mm 0.00 in0.0 mm 0.00 in0.0 mm
03:45 AM 41.3°F5.2°C 37.4°F3.0°C 86% 2.0 mph SSW3.2 kmh SSW 4.0 mph6.4 kmh 30.56 in1034.9 mb 0.00 in0.0 mm 0.00 in0.0 mm 0.00 in0.0 mm
03:40 AM 41.4°F5.2°C 37.5°F3.1°C 86% 2.0 mph SW3.2 kmh SW 3.0 mph4.8 kmh 30.56 in1034.9 mb 0.00 in0.0 mm 0.00 in0.0 mm 0.00 in0.0 mm
03:35 AM 41.4°F5.2°C 37.5°F3.1°C 86% 2.0 mph SW3.2 kmh SW 3.0 mph4.8 kmh 30.56 in1034.9 mb 0.00 in0.0 mm 0.00 in0.0 mm 0.00 in0.0 mm
03:30 AM 41.4°F5.2°C 37.5°F3.1°C 86% 1.0 mph SW1.6 kmh SW 3.0 mph4.8 kmh 30.56 in1034.9 mb 0.00 in0.0 mm 0.00 in0.0 mm 0.00 in0.0 mm
03:25 AM 41.4°F5.2°C 37.5°F3.1°C 86% 2.0 mph SW3.2 kmh SW 4.0 mph6.4 kmh 30.56 in1034.9 mb 0.00 in0.0 mm 0.00 in0.0 mm 0.00 in0.0 mm
03:20 AM 41.4°F5.2°C 37.5°F3.1°C 86% 2.0 mph SW3.2 kmh SW 4.0 mph6.4 kmh 30.56 in1034.9 mb 0.00 in0.0 mm 0.00 in0.0 mm 0.00 in0.0 mm
03:15 AM 41.3°F5.2°C 37.4°F3.0°C 86% 2.0 mph SSW3.2 kmh SSW 3.0 mph4.8 kmh 30.56 in1034.9 mb 0.00 in0.0 mm 0.00 in0.0 mm 0.00 in0.0 mm
03:10 AM 41.3°F5.2°C 37.4°F3.0°C 86% 1.0 mph SSW1.6 kmh SSW 3.0 mph4.8 kmh 30.55 in1034.5 mb 0.00 in0.0 mm 0.00 in0.0 mm 0.00 in0.0 mm
03:05 AM 41.3°F5.2°C 37.4°F3.0°C 86% 1.0 mph SSW1.6 kmh SSW 3.0 mph4.8 kmh 30.55 in1034.5 mb 0.00 in0.0 mm 0.00 in0.0 mm 0.00 in0.0 mm
03:00 AM 41.3°F5.2°C 37.4°F3.0°C 86% 3.0 mph SSW4.8 kmh SSW 3.0 mph4.8 kmh 30.55 in1034.5 mb 0.00 in0.0 mm 0.00 in0.0 mm 0.00 in0.0 mm
02:55 AM 41.3°F5.2°C 37.4°F3.0°C 86% 2.0 mph SSW3.2 kmh SSW 3.0 mph4.8 kmh 30.55 in1034.5 mb 0.00 in0.0 mm 0.00 in0.0 mm 0.00 in0.0 mm
02:50 AM 41.4°F5.2°C 37.5°F3.1°C 86% 3.0 mph SSW4.8 kmh SSW 3.0 mph4.8 kmh 30.55 in1034.5 mb 0.00 in0.0 mm 0.00 in0.0 mm 0.00 in0.0 mm
02:45 AM 41.5°F5.3°C 37.3°F2.9°C 85% 2.0 mph SSW3.2 kmh SSW 3.0 mph4.8 kmh 30.55 in1034.5 mb 0.00 in0.0 mm 0.00 in0.0 mm 0.00 in0.0 mm
02:40 AM 41.6°F5.3°C 37.4°F3.0°C 85% 1.0 mph SSW1.6 kmh SSW 3.0 mph4.8 kmh 30.55 in1034.5 mb 0.00 in0.0 mm 0.00 in0.0 mm 0.00 in0.0 mm
02:35 AM 41.8°F5.4°C 37.6°F3.1°C 85% 2.0 mph SSW3.2 kmh SSW 2.0 mph3.2 kmh 30.56 in1034.9 mb 0.00 in0.0 mm 0.00 in0.0 mm 0.00 in0.0 mm
02:30 AM 41.8°F5.4°C 37.6°F3.1°C 85% 1.0 mph SSW1.6 kmh SSW 2.0 mph3.2 kmh 30.55 in1034.5 mb 0.00 in0.0 mm 0.00 in0.0 mm 0.00 in0.0 mm
02:25 AM 41.9°F5.5°C 37.7°F3.2°C 85% 1.0 mph SSW1.6 kmh SSW 2.0 mph3.2 kmh 30.55 in1034.5 mb 0.00 in0.0 mm 0.00 in0.0 mm 0.00 in0.0 mm
02:20 AM 41.9°F5.5°C 37.7°F3.2°C 85% 2.0 mph SSW3.2 kmh SSW 3.0 mph4.8 kmh 30.55 in1034.5 mb 0.00 in0.0 mm 0.00 in0.0 mm 0.00 in0.0 mm
02:15 AM 42.0°F5.6°C 37.8°F3.2°C 85% 2.0 mph SSW3.2 kmh SSW 3.0 mph4.8 kmh 30.55 in1034.5 mb 0.00 in0.0 mm 0.00 in0.0 mm 0.00 in0.0 mm
02:10 AM 42.0°F5.6°C 37.8°F3.2°C 85% 1.0 mph SSW1.6 kmh SSW 4.0 mph6.4 kmh 30.55 in1034.5 mb 0.00 in0.0 mm 0.00 in0.0 mm 0.00 in0.0 mm
02:05 AM 42.0°F5.6°C 37.8°F3.2°C 85% 3.0 mph SSW4.8 kmh SSW 4.0 mph6.4 kmh 30.55 in1034.5 mb 0.00 in0.0 mm 0.00 in0.0 mm 0.00 in0.0 mm
02:00 AM 42.0°F5.6°C 37.8°F3.2°C 85% 2.0 mph SSW3.2 kmh SSW 2.0 mph3.2 kmh 30.56 in1034.9 mb 0.00 in0.0 mm 0.00 in0.0 mm 0.00 in0.0 mm
01:55 AM 42.0°F5.6°C 37.8°F3.2°C 85% 1.0 mph SSW1.6 kmh SSW 2.0 mph3.2 kmh 30.55 in1034.5 mb 0.00 in0.0 mm 0.00 in0.0 mm 0.00 in0.0 mm
01:50 AM 42.0°F5.6°C 37.8°F3.2°C 85% 1.0 mph SSW1.6 kmh SSW 3.0 mph4.8 kmh 30.55 in1034.5 mb 0.00 in0.0 mm 0.00 in0.0 mm 0.00 in0.0 mm
01:45 AM 42.0°F5.6°C 37.8°F3.2°C 85% 1.0 mph S1.6 kmh S 2.0 mph3.2 kmh 30.55 in1034.5 mb 0.00 in0.0 mm 0.00 in0.0 mm 0.00 in0.0 mm
01:40 AM 42.0°F5.6°C 37.8°F3.2°C 85% 1.0 mph S1.6 kmh S 2.0 mph3.2 kmh 30.55 in1034.5 mb 0.00 in0.0 mm 0.00 in0.0 mm 0.00 in0.0 mm
01:35 AM 41.9°F5.5°C 37.7°F3.2°C 85% 1.0 mph S1.6 kmh S 4.0 mph6.4 kmh 30.55 in1034.5 mb 0.00 in0.0 mm 0.00 in0.0 mm 0.00 in0.0 mm
01:30 AM 41.9°F5.5°C 37.7°F3.2°C 85% Calm Calm 1.0 mph1.6 kmh 30.55 in1034.5 mb 0.00 in0.0 mm 0.00 in0.0 mm 0.00 in0.0 mm
01:25 AM 41.8°F5.4°C 37.9°F3.3°C 86% Calm Calm 4.0 mph6.4 kmh 30.55 in1034.5 mb 0.00 in0.0 mm 0.00 in0.0 mm 0.00 in0.0 mm
01:20 AM 41.8°F5.4°C 37.6°F3.1°C 85% 3.0 mph S4.8 kmh S 4.0 mph6.4 kmh 30.55 in1034.5 mb 0.00 in0.0 mm 0.00 in0.0 mm 0.00 in0.0 mm
01:15 AM 41.8°F5.4°C 37.6°F3.1°C 85% 2.0 mph SSW3.2 kmh SSW 3.0 mph4.8 kmh 30.55 in1034.5 mb 0.00 in0.0 mm 0.00 in0.0 mm 0.00 in0.0 mm
01:10 AM 41.9°F5.5°C 37.7°F3.2°C 85% 2.0 mph SSW3.2 kmh SSW 4.0 mph6.4 kmh 30.55 in1034.5 mb 0.00 in0.0 mm 0.00 in0.0 mm 0.00 in0.0 mm
01:05 AM 42.0°F5.6°C 37.8°F3.2°C 85% 2.0 mph S3.2 kmh S 4.0 mph6.4 kmh 30.55 in1034.5 mb 0.00 in0.0 mm 0.00 in0.0 mm 0.00 in0.0 mm
01:00 AM 42.0°F5.6°C 37.8°F3.2°C 85% 3.0 mph S4.8 kmh S 4.0 mph6.4 kmh 30.55 in1034.5 mb 0.00 in0.0 mm 0.00 in0.0 mm 0.00 in0.0 mm
12:55 AM 42.0°F5.6°C 37.8°F3.2°C 85% Calm Calm 5.0 mph8.0 kmh 30.55 in1034.5 mb 0.00 in0.0 mm 0.00 in0.0 mm 0.00 in0.0 mm
12:50 AM 42.1°F5.6°C 37.9°F3.3°C 85% 3.0 mph S4.8 kmh S 4.0 mph6.4 kmh 30.55 in1034.5 mb 0.00 in0.0 mm 0.00 in0.0 mm 0.00 in0.0 mm
12:45 AM 41.9°F5.5°C 37.7°F3.2°C 85% 2.0 mph SSE3.2 kmh SSE 4.0 mph6.4 kmh 30.55 in1034.5 mb 0.00 in0.0 mm 0.00 in0.0 mm 0.00 in0.0 mm
12:40 AM 42.0°F5.6°C 37.8°F3.2°C 85% 2.0 mph SSW3.2 kmh SSW 4.0 mph6.4 kmh 30.54 in1034.2 mb 0.00 in0.0 mm 0.00 in0.0 mm 0.00 in0.0 mm
12:35 AM 42.0°F5.6°C 37.8°F3.2°C 85% 2.0 mph S3.2 kmh S 4.0 mph6.4 kmh 30.54 in1034.2 mb 0.00 in0.0 mm 0.00 in0.0 mm 0.00 in0.0 mm
12:30 AM 42.0°F5.6°C 37.8°F3.2°C 85% 2.0 mph S3.2 kmh S 3.0 mph4.8 kmh 30.54 in1034.2 mb 0.00 in0.0 mm 0.00 in0.0 mm 0.00 in0.0 mm
12:25 AM 42.1°F5.6°C 37.6°F3.1°C 84% 3.0 mph S4.8 kmh S 4.0 mph6.4 kmh 30.54 in1034.2 mb 0.00 in0.0 mm 0.00 in0.0 mm 0.00 in0.0 mm
12:20 AM 42.2°F5.7°C 37.7°F3.2°C 84% 3.0 mph SSW4.8 kmh SSW 4.0 mph6.4 kmh 30.54 in1034.2 mb 0.00 in0.0 mm 0.00 in0.0 mm 0.00 in0.0 mm
12:15 AM 42.4°F5.8°C 37.9°F3.3°C 84% 4.0 mph SSW6.4 kmh SSW 5.0 mph8.0 kmh 30.54 in1034.2 mb 0.00 in0.0 mm 0.00 in0.0 mm 0.00 in0.0 mm
12:10 AM 42.5°F5.8°C 38.0°F3.3°C 84% 4.0 mph SSW6.4 kmh SSW 5.0 mph8.0 kmh 30.54 in1034.2 mb 0.00 in0.0 mm 0.00 in0.0 mm 0.00 in0.0 mm
12:05 AM 42.7°F5.9°C 37.9°F3.3°C 83% 4.0 mph S6.4 kmh S 6.0 mph9.7 kmh 30.54 in1034.2 mb 0.00 in0.0 mm 0.00 in0.0 mm 0.00 in0.0 mm
12:00 AM 42.8°F6.0°C 38.0°F3.3°C 83% 5.0 mph S8.0 kmh S 7.0 mph11.3 kmh 30.54 in1034.2 mb 0.00 in0.0 mm 0.00 in0.0 mm 0.00 in0.0 mm